createdAt,value
2023-05-24T05:00:56.198Z,39.38
2023-05-24T05:01:56.156Z,45.00
2023-05-24T05:02:56.236Z,45.00
2023-05-24T05:03:56.113Z,45.00
2023-05-24T05:04:56.110Z,50.62
2023-05-24T05:05:56.081Z,50.62
2023-05-24T05:06:56.067Z,56.25
2023-05-24T05:07:56.074Z,56.25
2023-05-24T05:08:56.044Z,56.25
2023-05-24T05:09:56.034Z,56.25
2023-05-24T05:10:56.059Z,56.25
2023-05-24T05:12:01.029Z,56.25
2023-05-24T05:12:55.998Z,50.62
2023-05-24T05:13:55.991Z,50.62
2023-05-24T05:14:55.984Z,61.88
2023-05-24T05:15:55.987Z,67.50
2023-05-24T05:16:55.996Z,67.50
2023-05-24T05:17:55.958Z,56.25
2023-05-24T05:18:55.943Z,56.25
2023-05-24T05:19:55.947Z,56.25
2023-05-24T05:20:55.903Z,73.12
2023-05-24T05:21:55.901Z,61.88
2023-05-24T05:23:00.901Z,56.25
2023-05-24T05:23:55.876Z,78.75
2023-05-24T05:24:55.852Z,78.75
2023-05-24T05:25:55.843Z,78.75
2023-05-24T05:26:55.846Z,90.00
2023-05-24T05:27:55.844Z,90.00
2023-05-24T05:28:55.838Z,90.00
2023-05-24T05:29:55.802Z,90.00
2023-05-24T05:30:55.793Z,95.62
2023-05-24T05:31:55.788Z,95.62
2023-05-24T05:32:55.855Z,101.25
2023-05-24T05:34:00.816Z,101.25
2023-05-24T05:34:55.755Z,101.25
2023-05-24T05:35:55.731Z,112.50
2023-05-24T05:36:55.719Z,123.75
2023-05-24T05:37:55.716Z,123.75
2023-05-24T05:38:55.699Z,84.38
2023-05-24T05:39:55.706Z,56.25
2023-05-24T05:40:55.674Z,61.88
2023-05-24T05:41:55.668Z,61.88
2023-05-24T05:42:55.666Z,61.88
2023-05-24T05:43:55.646Z,67.50
2023-05-24T05:45:00.664Z,67.50
2023-05-24T05:45:55.692Z,61.88
2023-05-24T05:46:55.607Z,67.50
2023-05-24T05:47:55.690Z,67.50
2023-05-24T05:48:55.604Z,78.75
2023-05-24T05:49:55.575Z,78.75
2023-05-24T05:50:55.557Z,73.12
2023-05-24T05:51:55.573Z,78.75
2023-05-24T05:52:55.551Z,78.75
2023-05-24T05:53:55.532Z,78.75
2023-05-24T05:54:55.539Z,84.38
2023-05-24T05:56:00.542Z,78.75
2023-05-24T05:56:55.498Z,78.75
2023-05-24T05:57:55.494Z,78.75
2023-05-24T05:58:55.469Z,78.75
2023-05-24T05:59:55.512Z,78.75
2023-05-24T06:00:55.474Z,78.75
2023-05-24T06:01:55.480Z,78.75
2023-05-24T06:02:55.518Z,78.75
2023-05-24T06:03:55.528Z,78.75
2023-05-24T06:04:55.486Z,78.75
2023-05-24T06:05:55.400Z,78.75
2023-05-24T06:07:00.416Z,84.38
2023-05-24T06:07:55.364Z,101.25
2023-05-24T06:08:55.358Z,90.00
2023-05-24T06:09:55.362Z,84.38
2023-05-24T06:10:55.404Z,101.25
2023-05-24T06:11:55.342Z,106.88
2023-05-24T06:12:55.309Z,106.88
2023-05-24T06:13:55.297Z,101.25
2023-05-24T06:14:55.281Z,101.25
2023-05-24T06:15:55.332Z,90.00
2023-05-24T06:16:56.265Z,123.75
2023-05-24T06:18:00.327Z,101.25
2023-05-24T06:19:05.500Z,101.25
2023-05-24T06:19:55.266Z,106.88
2023-05-24T06:20:55.266Z,106.88
2023-05-24T06:21:55.228Z,112.50
2023-05-24T06:22:55.209Z,112.50
2023-05-24T06:23:55.188Z,129.38
2023-05-24T06:24:55.195Z,129.38
2023-05-24T06:25:55.158Z,135.00
2023-05-24T06:26:55.156Z,140.62
2023-05-24T06:27:55.156Z,146.25
2023-05-24T06:29:00.143Z,157.50
2023-05-24T06:29:55.213Z,168.75
2023-05-24T06:30:55.203Z,191.25
2023-05-24T06:31:55.126Z,241.88
2023-05-24T06:32:55.145Z,202.50
2023-05-24T06:34:03.781Z,225.00
2023-05-24T06:34:55.070Z,253.12
2023-05-24T06:35:55.048Z,270.00
2023-05-24T06:36:55.052Z,236.25
2023-05-24T06:37:55.038Z,253.12
2023-05-24T06:38:55.070Z,196.88
2023-05-24T06:40:00.101Z,129.38
2023-05-24T06:40:54.990Z,123.75
2023-05-24T06:41:54.976Z,123.75
2023-05-24T06:42:54.964Z,129.38
2023-05-24T06:43:55.003Z,146.25
2023-05-24T06:44:54.942Z,157.50
2023-05-24T06:45:54.956Z,157.50
2023-05-24T06:46:54.973Z,163.12
2023-05-24T06:47:54.968Z,123.75
2023-05-24T06:48:55.076Z,174.38
2023-05-24T06:49:54.892Z,123.75
2023-05-24T06:50:59.904Z,146.25
2023-05-24T06:51:55.250Z,174.38
2023-05-24T06:52:54.940Z,151.88
2023-05-24T06:53:54.922Z,112.50
2023-05-24T06:54:54.874Z,118.12
2023-05-24T06:55:56.924Z,112.50
2023-05-24T06:56:54.809Z,101.25
2023-05-24T06:57:54.864Z,90.00
2023-05-24T06:58:54.786Z,101.25
2023-05-24T06:59:54.776Z,101.25
2023-05-24T07:00:54.802Z,106.88
2023-05-24T07:02:01.994Z,112.50
2023-05-24T07:02:54.816Z,106.88
2023-05-24T07:03:54.756Z,123.75
2023-05-24T07:04:54.839Z,112.50
2023-05-24T07:05:54.704Z,95.62
2023-05-24T07:06:54.696Z,112.50
2023-05-24T07:07:54.697Z,106.88
2023-05-24T07:08:54.735Z,106.88
2023-05-24T07:09:54.691Z,129.38
2023-05-24T07:10:54.661Z,112.50
2023-05-24T07:11:54.655Z,106.88
2023-05-24T07:12:59.661Z,118.12
2023-05-24T07:13:54.612Z,112.50
2023-05-24T07:14:54.601Z,146.25
2023-05-24T07:15:54.606Z,123.75
2023-05-24T07:16:54.617Z,123.75
2023-05-24T07:17:54.603Z,112.50
2023-05-24T07:18:54.556Z,123.75
2023-05-24T07:19:54.571Z,129.38
2023-05-24T07:20:54.568Z,123.75
2023-05-24T07:21:54.642Z,112.50
2023-05-24T07:22:54.516Z,118.12
2023-05-24T07:23:59.583Z,112.50
2023-05-24T07:24:54.488Z,129.38
2023-05-24T07:25:54.482Z,135.00
2023-05-24T07:26:54.471Z,191.25
2023-05-24T07:27:54.470Z,146.25
2023-05-24T07:28:54.440Z,123.75
2023-05-24T07:29:54.437Z,151.88
2023-05-24T07:30:54.425Z,129.38
2023-05-24T07:31:54.523Z,140.62
2023-05-24T07:32:54.482Z,135.00
2023-05-24T07:33:54.401Z,135.00
2023-05-24T07:34:59.398Z,151.88
2023-05-24T07:35:54.389Z,185.62
2023-05-24T07:36:54.353Z,129.38
2023-05-24T07:37:54.341Z,135.00
2023-05-24T07:38:54.328Z,140.62
2023-05-24T07:39:54.399Z,129.38
2023-05-24T07:40:54.318Z,129.38
2023-05-24T07:41:54.337Z,135.00
2023-05-24T07:42:54.285Z,196.88
2023-05-24T07:43:54.277Z,146.25
2023-05-24T07:44:54.273Z,180.00
2023-05-24T07:45:59.373Z,129.38
2023-05-24T07:46:54.279Z,135.00
2023-05-24T07:47:56.704Z,140.62
2023-05-24T07:48:54.221Z,163.12
2023-05-24T07:49:54.224Z,140.62
2023-05-24T07:50:54.205Z,174.38
2023-05-24T07:51:54.195Z,163.12
2023-05-24T07:52:54.176Z,168.75
2023-05-24T07:53:54.171Z,163.12
2023-05-24T07:54:54.167Z,191.25
2023-05-24T07:55:54.186Z,140.62
2023-05-24T07:56:59.160Z,140.62
2023-05-24T07:57:54.150Z,135.00
2023-05-24T07:58:54.120Z,140.62
2023-05-24T07:59:54.138Z,140.62
2023-05-24T08:00:54.097Z,140.62
2023-05-24T08:01:54.080Z,151.88
2023-05-24T08:02:54.169Z,151.88
2023-05-24T08:03:54.151Z,146.25
2023-05-24T08:04:54.074Z,151.88
2023-05-24T08:05:54.034Z,174.38
2023-05-24T08:06:54.110Z,151.88
2023-05-24T08:07:59.033Z,151.88
2023-05-24T08:08:54.011Z,174.38
2023-05-24T08:09:53.986Z,168.75
2023-05-24T08:10:53.985Z,236.25
2023-05-24T08:11:54.075Z,292.50
2023-05-24T08:12:53.956Z,298.12
2023-05-24T08:13:53.958Z,180.00
2023-05-24T08:14:53.966Z,219.38
2023-05-24T08:15:53.986Z,202.50
2023-05-24T08:16:54.217Z,174.38
2023-05-24T08:17:53.957Z,180.00
2023-05-24T08:18:58.920Z,185.62
2023-05-24T08:19:53.903Z,163.12
2023-05-24T08:20:53.868Z,151.88
2023-05-24T08:21:53.850Z,163.12
2023-05-24T08:22:53.847Z,151.88
2023-05-24T08:23:53.850Z,151.88
2023-05-24T08:24:53.816Z,163.12
2023-05-24T08:25:53.803Z,163.12
2023-05-24T08:26:53.794Z,236.25
2023-05-24T08:27:53.826Z,157.50
2023-05-24T08:28:53.780Z,157.50
2023-05-24T08:29:58.814Z,326.25
2023-05-24T08:30:53.764Z,225.00
2023-05-24T08:31:53.778Z,208.12
2023-05-24T08:32:53.794Z,680.62
2023-05-24T08:33:53.715Z,405.00
2023-05-24T08:35:00.468Z,388.12
2023-05-24T08:35:53.713Z,1113.75
2023-05-24T08:36:53.711Z,421.88
2023-05-24T08:37:53.688Z,416.25
2023-05-24T08:38:53.674Z,191.25
2023-05-24T08:39:53.643Z,427.50
2023-05-24T08:40:58.687Z,315.00
2023-05-24T08:42:07.936Z,388.12
2023-05-24T08:42:53.620Z,405.00
2023-05-24T08:43:53.653Z,984.38
2023-05-24T08:44:53.591Z,433.12
2023-05-24T08:45:53.596Z,281.25
2023-05-24T08:46:53.584Z,680.62
2023-05-24T08:47:53.672Z,663.75
2023-05-24T08:48:53.576Z,360.00
2023-05-24T08:49:53.536Z,315.00
2023-05-24T08:50:53.531Z,241.88
2023-05-24T08:51:58.539Z,208.12
2023-05-24T08:52:53.500Z,416.25
2023-05-24T08:53:53.507Z,568.12
2023-05-24T08:54:53.478Z,309.38
2023-05-24T08:55:53.477Z,343.12
2023-05-24T08:56:53.467Z,478.12
2023-05-24T08:57:53.446Z,1771.88
2023-05-24T08:58:53.437Z,1023.75
2023-05-24T08:59:53.456Z,163.12
2023-05-24T09:00:53.428Z,213.75
2023-05-24T09:01:53.447Z,157.50
2023-05-24T09:02:58.447Z,174.38
2023-05-24T09:03:53.430Z,168.75
2023-05-24T09:04:53.387Z,151.88
2023-05-24T09:05:53.372Z,151.88
2023-05-24T09:06:53.344Z,202.50
2023-05-24T09:07:53.329Z,180.00
2023-05-24T09:08:53.322Z,151.88
2023-05-24T09:09:53.341Z,174.38
2023-05-24T09:10:55.498Z,331.88
2023-05-24T09:11:53.306Z,225.00
2023-05-24T09:12:53.302Z,393.75
2023-05-24T09:13:58.290Z,185.62
2023-05-24T09:14:53.265Z,174.38
2023-05-24T09:15:53.880Z,225.00
2023-05-24T09:16:53.255Z,168.75
2023-05-24T09:17:53.246Z,180.00
2023-05-24T09:18:53.234Z,168.75
2023-05-24T09:19:53.250Z,208.12
2023-05-24T09:20:53.464Z,517.50
2023-05-24T09:21:53.184Z,877.50
2023-05-24T09:22:53.160Z,888.75
2023-05-24T09:23:53.163Z,1293.75
2023-05-24T09:24:58.179Z,365.62
2023-05-24T09:25:53.130Z,506.25
2023-05-24T09:26:53.124Z,466.88
2023-05-24T09:27:53.149Z,2311.88
2023-05-24T09:28:53.119Z,736.88
2023-05-24T09:29:53.097Z,410.62
2023-05-24T09:30:53.194Z,511.88
2023-05-24T09:31:53.177Z,511.88
2023-05-24T09:32:53.134Z,511.88
2023-05-24T09:33:53.039Z,1715.62
2023-05-24T09:34:53.026Z,433.12
2023-05-24T09:35:58.036Z,725.62
2023-05-24T09:36:53.017Z,399.38
2023-05-24T09:37:52.998Z,506.25
2023-05-24T09:38:52.986Z,354.38
2023-05-24T09:39:52.964Z,343.12
2023-05-24T09:40:52.959Z,388.12
2023-05-24T09:41:52.940Z,500.62
2023-05-24T09:42:52.975Z,219.38
2023-05-24T09:43:52.920Z,601.88
2023-05-24T09:44:52.912Z,489.38
2023-05-24T09:45:52.908Z,382.50
2023-05-24T09:46:58.052Z,770.62
2023-05-24T09:47:52.922Z,956.25
2023-05-24T09:48:52.903Z,697.50
2023-05-24T09:49:52.854Z,528.75
2023-05-24T09:50:52.840Z,697.50
2023-05-24T09:51:52.940Z,511.88
2023-05-24T09:52:52.824Z,573.75
2023-05-24T09:53:52.810Z,545.62
2023-05-24T09:54:52.827Z,703.12
2023-05-24T09:55:52.790Z,697.50
2023-05-24T09:56:52.807Z,804.38
2023-05-24T09:57:57.785Z,506.25
2023-05-24T09:58:52.778Z,506.25
2023-05-24T09:59:52.743Z,461.25
2023-05-24T10:00:52.767Z,427.50
2023-05-24T10:01:52.776Z,343.12
2023-05-24T10:02:53.776Z,315.00
2023-05-24T10:03:52.904Z,292.50
2023-05-24T10:04:52.925Z,303.75
2023-05-24T10:05:52.683Z,331.88
2023-05-24T10:06:52.690Z,382.50
2023-05-24T10:07:52.662Z,382.50
2023-05-24T10:08:57.674Z,450.00
2023-05-24T10:09:52.628Z,410.62
2023-05-24T10:10:52.628Z,438.75
2023-05-24T10:11:52.611Z,483.75
2023-05-24T10:12:52.613Z,500.62
2023-05-24T10:13:52.579Z,438.75
2023-05-24T10:14:52.579Z,343.12
2023-05-24T10:15:52.586Z,450.00
2023-05-24T10:16:52.601Z,292.50
2023-05-24T10:17:52.590Z,270.00
2023-05-24T10:18:52.555Z,264.38
2023-05-24T10:19:57.594Z,225.00
2023-05-24T10:20:52.842Z,630.00
2023-05-24T10:21:52.554Z,1231.88
2023-05-24T10:22:52.492Z,258.75
2023-05-24T10:23:52.473Z,230.62
2023-05-24T10:24:52.479Z,270.00
2023-05-24T10:25:52.457Z,410.62
2023-05-24T10:26:52.441Z,225.00
2023-05-24T10:27:52.427Z,225.00
2023-05-24T10:28:52.453Z,219.38
2023-05-24T10:29:52.414Z,230.62
2023-05-24T10:30:57.448Z,258.75
2023-05-24T10:31:52.385Z,286.88
2023-05-24T10:32:52.390Z,241.88
2023-05-24T10:33:52.688Z,393.75
2023-05-24T10:34:52.486Z,348.75
2023-05-24T10:35:52.334Z,376.88
2023-05-24T10:36:52.342Z,320.62
2023-05-24T10:37:52.319Z,506.25
2023-05-24T10:38:52.328Z,275.62
2023-05-24T10:39:52.297Z,292.50
2023-05-24T10:40:52.459Z,331.88
2023-05-24T10:41:57.283Z,348.75
2023-05-24T10:42:52.269Z,483.75
2023-05-24T10:44:07.992Z,2728.12
2023-05-24T10:44:52.245Z,264.38
2023-05-24T10:45:52.305Z,1260.00
2023-05-24T10:46:52.324Z,331.88
2023-05-24T10:47:52.202Z,388.12
2023-05-24T10:48:52.225Z,264.38
2023-05-24T10:49:52.192Z,697.50
2023-05-24T10:50:52.251Z,534.38
2023-05-24T10:51:52.151Z,472.50
2023-05-24T10:52:57.161Z,455.62
2023-05-24T10:53:52.131Z,236.25
2023-05-24T10:55:03.247Z,450.00
2023-05-24T10:55:52.149Z,213.75
2023-05-24T10:56:52.109Z,455.62
2023-05-24T10:57:52.154Z,641.25
2023-05-24T10:58:52.100Z,315.00
2023-05-24T10:59:52.061Z,196.88
2023-05-24T11:00:52.432Z,236.25
2023-05-24T11:01:52.121Z,601.88
2023-05-24T11:02:52.085Z,534.38
2023-05-24T11:03:57.045Z,703.12
2023-05-24T11:04:52.012Z,708.75
2023-05-24T11:05:52.220Z,1473.75
2023-05-24T11:06:52.109Z,1670.62
2023-05-24T11:07:51.980Z,2565.00
2023-05-24T11:08:51.958Z,3301.88
2023-05-24T11:09:51.946Z,3898.12
2023-05-24T11:10:51.936Z,4123.12
2023-05-24T11:11:51.939Z,4173.75
2023-05-24T11:12:51.946Z,4230.00
2023-05-24T11:13:51.903Z,4280.62
2023-05-24T11:14:56.914Z,4376.25
2023-05-24T11:15:51.913Z,4258.12
2023-05-24T11:16:52.106Z,4134.38
2023-05-24T11:17:51.893Z,4010.62
2023-05-24T11:18:51.856Z,3892.50
2023-05-24T11:19:51.905Z,3960.00
2023-05-24T11:20:51.932Z,3858.75
2023-05-24T11:21:51.828Z,3926.25
2023-05-24T11:22:51.854Z,4055.62
2023-05-24T11:23:51.796Z,4100.62
2023-05-24T11:24:51.832Z,4179.38
2023-05-24T11:25:56.788Z,4258.12
2023-05-24T11:26:51.798Z,4280.62
2023-05-24T11:27:51.830Z,4100.62
2023-05-24T11:28:51.738Z,3886.88
2023-05-24T11:29:51.726Z,3796.88
2023-05-24T11:30:51.776Z,3808.12
2023-05-24T11:31:51.758Z,3751.88
2023-05-24T11:32:51.724Z,2317.50
2023-05-24T11:33:51.681Z,4162.50
2023-05-24T11:34:51.685Z,2925.00
2023-05-24T11:35:51.673Z,1614.38
2023-05-24T11:36:51.676Z,1170.00
2023-05-24T11:37:51.643Z,4072.50
2023-05-24T11:38:56.668Z,691.88
2023-05-24T11:39:51.616Z,4117.50
2023-05-24T11:40:51.616Z,950.62
2023-05-24T11:41:51.590Z,832.50
2023-05-24T11:42:51.610Z,1625.62
2023-05-24T11:43:51.582Z,4072.50
2023-05-24T11:44:51.589Z,4021.88
2023-05-24T11:45:51.595Z,4010.62
2023-05-24T11:46:51.539Z,3948.75
2023-05-24T11:47:51.569Z,3898.12
2023-05-24T11:48:51.539Z,3886.88
2023-05-24T11:49:56.534Z,3943.12
2023-05-24T11:50:51.900Z,3926.25
2023-05-24T11:51:51.505Z,3898.12
2023-05-24T11:52:51.475Z,3965.62
2023-05-24T11:53:53.121Z,4123.12
2023-05-24T11:54:51.586Z,4185.00
2023-05-24T11:55:51.481Z,4072.50
2023-05-24T11:56:51.428Z,3976.88
2023-05-24T11:57:51.417Z,4027.50
2023-05-24T11:58:51.419Z,4083.75
2023-05-24T11:59:51.400Z,4072.50
2023-05-24T12:00:51.415Z,3982.50
2023-05-24T12:01:51.374Z,3943.12
2023-05-24T12:02:57.341Z,3915.00
2023-05-24T12:03:51.543Z,3999.38
2023-05-24T12:04:51.394Z,3870.00
2023-05-24T12:05:51.333Z,3808.12
2023-05-24T12:06:51.381Z,4044.38
2023-05-24T12:07:51.312Z,4066.88
2023-05-24T12:08:51.312Z,3988.12
2023-05-24T12:09:51.286Z,3903.75
2023-05-24T12:10:51.312Z,3841.88
2023-05-24T12:11:51.304Z,3802.50
2023-05-24T12:12:51.317Z,3701.25
2023-05-24T12:13:56.275Z,3555.00
2023-05-24T12:14:51.231Z,3532.50
2023-05-24T12:15:53.286Z,3763.12
2023-05-24T12:16:51.213Z,3881.25
2023-05-24T12:17:51.248Z,3858.75
2023-05-24T12:19:02.414Z,3853.12
2023-05-24T12:19:51.218Z,3920.62
2023-05-24T12:20:51.227Z,3240.00
2023-05-24T12:21:53.413Z,1293.75
2023-05-24T12:22:51.159Z,230.62
2023-05-24T12:23:51.136Z,202.50
2023-05-24T12:24:56.226Z,196.88
2023-05-24T12:25:51.118Z,196.88
2023-05-24T12:26:51.178Z,191.25
2023-05-24T12:27:54.178Z,185.62
2023-05-24T12:28:51.091Z,191.25
2023-05-24T12:29:51.069Z,191.25
2023-05-24T12:30:51.079Z,185.62
2023-05-24T12:31:51.090Z,191.25
2023-05-24T12:32:51.049Z,191.25
2023-05-24T12:33:53.583Z,196.88
2023-05-24T12:34:51.039Z,180.00
2023-05-24T12:35:56.027Z,180.00
2023-05-24T12:36:51.027Z,185.62
2023-05-24T12:37:50.999Z,174.38
2023-05-24T12:38:50.976Z,174.38
2023-05-24T12:39:53.087Z,174.38
2023-05-24T12:41:07.416Z,180.00
2023-05-24T12:41:51.951Z,185.62
2023-05-24T12:42:50.979Z,168.75
2023-05-24T12:43:50.927Z,174.38
2023-05-24T12:44:50.898Z,180.00
2023-05-24T12:45:53.526Z,180.00
2023-05-24T12:46:56.037Z,185.62
2023-05-24T12:47:50.940Z,185.62
2023-05-24T12:48:50.919Z,174.38
2023-05-24T12:49:50.863Z,168.75
2023-05-24T12:50:50.843Z,163.12
2023-05-24T12:51:50.835Z,168.75
2023-05-24T12:52:50.811Z,163.12
2023-05-24T12:53:50.800Z,168.75
2023-05-24T12:54:50.802Z,163.12
2023-05-24T12:55:50.796Z,157.50
2023-05-24T12:56:52.892Z,163.12
2023-05-24T12:57:50.760Z,163.12
2023-05-24T12:58:50.824Z,168.75
2023-05-24T12:59:55.756Z,157.50
2023-05-24T13:00:50.780Z,157.50
2023-05-24T13:01:50.725Z,163.12
2023-05-24T13:02:50.735Z,163.12
2023-05-24T13:03:50.693Z,163.12
2023-05-24T13:04:50.705Z,157.50
2023-05-24T13:05:50.767Z,157.50
2023-05-24T13:06:50.682Z,151.88
2023-05-24T13:07:50.649Z,151.88
2023-05-24T13:08:50.633Z,146.25
2023-05-24T13:09:50.630Z,151.88
2023-05-24T13:10:55.629Z,157.50
2023-05-24T13:11:50.594Z,151.88
2023-05-24T13:12:50.605Z,146.25
2023-05-24T13:13:50.583Z,146.25
2023-05-24T13:14:52.661Z,146.25
2023-05-24T13:15:50.556Z,146.25
2023-05-24T13:16:50.622Z,157.50
2023-05-24T13:17:50.654Z,146.25
2023-05-24T13:18:50.561Z,146.25
2023-05-24T13:19:50.557Z,140.62
2023-05-24T13:20:50.554Z,140.62
2023-05-24T13:21:55.521Z,140.62
2023-05-24T13:22:50.476Z,135.00
2023-05-24T13:23:50.475Z,151.88
2023-05-24T13:24:50.467Z,140.62
2023-05-24T13:25:50.439Z,140.62
2023-05-24T13:26:53.001Z,151.88
2023-05-24T13:27:50.429Z,140.62
2023-05-24T13:29:21.685Z,140.62
2023-05-24T13:30:00.905Z,140.62
2023-05-24T13:30:50.470Z,151.88
2023-05-24T13:31:50.476Z,151.88
2023-05-24T13:32:55.468Z,174.38
2023-05-24T13:33:50.362Z,180.00
2023-05-24T13:34:50.344Z,168.75
2023-05-24T13:35:50.330Z,157.50
2023-05-24T13:36:50.334Z,146.25
2023-05-24T13:37:50.315Z,140.62
2023-05-24T13:38:56.629Z,140.62
2023-05-24T13:39:50.307Z,140.62
2023-05-24T13:40:50.267Z,140.62
2023-05-24T13:41:50.314Z,157.50
2023-05-24T13:42:50.280Z,174.38
2023-05-24T13:43:55.260Z,191.25
2023-05-24T13:44:50.227Z,180.00
2023-05-24T13:45:50.226Z,191.25
2023-05-24T13:46:50.269Z,163.12
2023-05-24T13:47:50.245Z,157.50
2023-05-24T13:48:50.215Z,151.88
2023-05-24T13:49:50.170Z,140.62
2023-05-24T13:50:50.166Z,140.62
2023-05-24T13:51:50.160Z,140.62
2023-05-24T13:52:50.146Z,146.25
2023-05-24T13:53:50.133Z,168.75
2023-05-24T13:54:55.187Z,185.62
2023-05-24T13:55:50.103Z,202.50
2023-05-24T13:56:50.117Z,180.00
2023-05-24T13:57:52.061Z,180.00
2023-05-24T13:58:50.091Z,157.50
2023-05-24T13:59:50.056Z,151.88
2023-05-24T14:00:50.076Z,140.62
2023-05-24T14:01:50.134Z,140.62
2023-05-24T14:02:50.277Z,146.25
2023-05-24T14:03:50.036Z,140.62
2023-05-24T14:04:50.014Z,157.50
2023-05-24T14:05:55.131Z,146.25
2023-05-24T14:06:50.009Z,151.88
2023-05-24T14:07:50.003Z,146.25
2023-05-24T14:08:49.959Z,146.25
2023-05-24T14:09:49.957Z,151.88
2023-05-24T14:10:49.991Z,135.00
2023-05-24T14:11:49.921Z,118.12
2023-05-24T14:13:03.427Z,129.38
2023-05-24T14:15:50.157Z,180.00
2023-05-24T14:16:54.981Z,236.25
2023-05-24T14:17:49.897Z,230.62
2023-05-24T14:18:49.874Z,225.00
2023-05-24T14:19:49.896Z,236.25
2023-05-24T14:20:49.827Z,230.62
2023-05-24T14:21:49.825Z,225.00
2023-05-24T14:22:49.815Z,230.62
2023-05-24T14:23:49.802Z,225.00
2023-05-24T14:24:49.831Z,225.00
2023-05-24T14:25:49.786Z,230.62
2023-05-24T14:26:49.757Z,219.38
2023-05-24T14:27:54.766Z,213.75
2023-05-24T14:28:49.736Z,219.38
2023-05-24T14:29:49.731Z,208.12
2023-05-24T14:30:49.719Z,208.12
2023-05-24T14:31:49.918Z,213.75
2023-05-24T14:32:49.746Z,202.50
2023-05-24T14:33:49.692Z,196.88
2023-05-24T14:34:49.706Z,202.50
2023-05-24T14:35:49.656Z,208.12
2023-05-24T14:36:49.647Z,208.12
2023-05-24T14:37:49.631Z,202.50
2023-05-24T14:38:54.655Z,180.00
2023-05-24T14:39:49.634Z,191.25
2023-05-24T14:40:49.632Z,191.25
2023-05-24T14:41:49.584Z,180.00
2023-05-24T14:42:49.606Z,213.75
2023-05-24T14:43:49.573Z,191.25
2023-05-24T14:44:49.552Z,157.50
2023-05-24T14:45:49.628Z,146.25
2023-05-24T14:46:49.542Z,180.00
2023-05-24T14:47:49.545Z,185.62
2023-05-24T14:48:49.522Z,163.12
2023-05-24T14:49:54.543Z,180.00
2023-05-24T14:50:49.485Z,174.38
2023-05-24T14:51:49.472Z,174.38
2023-05-24T14:52:49.471Z,174.38
2023-05-24T14:53:49.461Z,157.50
2023-05-24T14:54:49.446Z,106.88
2023-05-24T14:55:49.433Z,90.00
2023-05-24T14:56:49.418Z,84.38
2023-05-24T14:57:49.433Z,90.00
2023-05-24T14:58:49.394Z,118.12
2023-05-24T14:59:49.397Z,118.12
2023-05-24T15:00:54.441Z,90.00
2023-05-24T15:01:49.628Z,73.12
2023-05-24T15:02:49.454Z,73.12
2023-05-24T15:03:49.389Z,95.62
2023-05-24T15:04:49.344Z,118.12
2023-05-24T15:05:49.346Z,90.00
2023-05-24T15:06:49.324Z,73.12
2023-05-24T15:07:49.315Z,73.12
2023-05-24T15:08:49.281Z,78.75
2023-05-24T15:09:49.281Z,78.75
2023-05-24T15:10:49.288Z,118.12
2023-05-24T15:11:54.280Z,118.12
2023-05-24T15:12:49.268Z,78.75
2023-05-24T15:13:49.225Z,78.75
2023-05-24T15:14:49.213Z,73.12
2023-05-24T15:15:49.215Z,90.00
2023-05-24T15:16:49.279Z,118.12
2023-05-24T15:17:49.253Z,90.00
2023-05-24T15:18:49.190Z,78.75
2023-05-24T15:19:49.195Z,73.12
2023-05-24T15:20:49.395Z,67.50
2023-05-24T15:21:49.168Z,67.50
2023-05-24T15:22:54.153Z,67.50
2023-05-24T15:23:49.116Z,73.12
2023-05-24T15:24:49.119Z,67.50
2023-05-24T15:25:49.102Z,67.50
2023-05-24T15:26:49.086Z,73.12
2023-05-24T15:27:49.083Z,95.62
2023-05-24T15:28:49.065Z,106.88
2023-05-24T15:29:49.052Z,106.88
2023-05-24T15:30:49.114Z,112.50
2023-05-24T15:31:49.096Z,118.12
2023-05-24T15:32:49.126Z,95.62
2023-05-24T15:33:54.027Z,118.12
2023-05-24T15:34:48.992Z,129.38
2023-05-24T15:35:48.994Z,123.75
2023-05-24T15:36:49.076Z,101.25
2023-05-24T15:37:49.002Z,118.12
2023-05-24T15:38:48.951Z,90.00
2023-05-24T15:39:48.938Z,90.00
2023-05-24T15:40:48.935Z,84.38
2023-05-24T15:41:48.912Z,84.38
2023-05-24T15:42:48.908Z,95.62
2023-05-24T15:43:48.888Z,129.38
2023-05-24T15:44:53.935Z,112.50
2023-05-24T15:45:48.890Z,112.50
2023-05-24T15:46:48.879Z,123.75
2023-05-24T15:47:48.873Z,90.00
2023-05-24T15:48:48.859Z,84.38
2023-05-24T15:49:48.837Z,90.00
2023-05-24T15:51:25.481Z,118.12
2023-05-24T15:52:03.488Z,101.25
2023-05-24T15:52:48.792Z,106.88
2023-05-24T15:53:48.804Z,106.88
2023-05-24T15:54:48.795Z,112.50
2023-05-24T15:55:53.783Z,112.50
2023-05-24T15:56:48.746Z,123.75
2023-05-24T15:57:48.731Z,118.12
2023-05-24T15:58:48.736Z,129.38
2023-05-24T15:59:48.719Z,123.75
2023-05-24T16:00:48.708Z,123.75
2023-05-24T16:01:48.749Z,129.38
2023-05-24T16:02:48.763Z,129.38
2023-05-24T16:03:48.837Z,146.25
2023-05-24T16:04:48.650Z,140.62
2023-05-24T16:05:48.638Z,151.88
2023-05-24T16:06:53.678Z,140.62
2023-05-24T16:07:48.617Z,140.62
2023-05-24T16:08:48.607Z,140.62
2023-05-24T16:09:48.657Z,140.62
2023-05-24T16:10:48.580Z,129.38
2023-05-24T16:11:48.589Z,135.00
2023-05-24T16:12:48.582Z,129.38
2023-05-24T16:13:48.566Z,140.62
2023-05-24T16:14:48.530Z,129.38
2023-05-24T16:15:48.527Z,118.12
2023-05-24T16:16:48.517Z,118.12
2023-05-24T16:17:53.573Z,118.12
2023-05-24T16:18:48.493Z,106.88
2023-05-24T16:19:48.478Z,90.00
2023-05-24T16:20:48.586Z,90.00
2023-05-24T16:21:48.503Z,84.38
2023-05-24T16:22:48.480Z,95.62
2023-05-24T16:23:48.442Z,95.62
2023-05-24T16:24:48.430Z,95.62
2023-05-24T16:25:48.430Z,112.50
2023-05-24T16:26:48.428Z,112.50
2023-05-24T16:27:48.390Z,106.88
2023-05-24T16:28:53.402Z,101.25
2023-05-24T16:29:48.362Z,95.62
2023-05-24T16:30:48.368Z,101.25
2023-05-24T16:31:48.445Z,106.88
2023-05-24T16:32:48.385Z,101.25
2023-05-24T16:33:48.320Z,106.88
2023-05-24T16:34:56.640Z,106.88
2023-05-24T16:35:48.297Z,112.50
2023-05-24T16:36:48.327Z,112.50
2023-05-24T16:37:48.272Z,106.88
2023-05-24T16:38:48.264Z,106.88
2023-05-24T16:39:53.280Z,95.62
2023-05-24T16:40:48.261Z,95.62
2023-05-24T16:41:48.268Z,90.00
2023-05-24T16:42:48.234Z,90.00
2023-05-24T16:43:48.214Z,84.38
2023-05-24T16:44:48.198Z,90.00
2023-05-24T16:45:48.207Z,95.62
2023-05-24T16:46:48.277Z,84.38
2023-05-24T16:47:48.326Z,90.00
2023-05-24T16:48:48.195Z,84.38
2023-05-24T16:49:48.136Z,84.38
2023-05-24T16:50:53.164Z,84.38
2023-05-24T16:51:48.146Z,84.38
2023-05-24T16:52:48.103Z,78.75
2023-05-24T16:53:48.101Z,78.75
2023-05-24T16:54:48.115Z,78.75
2023-05-24T16:55:48.088Z,84.38
2023-05-24T16:56:48.070Z,84.38
2023-05-24T16:57:48.160Z,84.38
2023-05-24T16:58:48.065Z,90.00
2023-05-24T16:59:50.623Z,84.38
2023-05-24T17:00:48.545Z,95.62
2023-05-24T17:01:53.513Z,101.25
2023-05-24T17:02:48.067Z,95.62
2023-05-24T17:03:48.104Z,95.62
2023-05-24T17:04:47.997Z,95.62
2023-05-24T17:05:47.957Z,101.25
2023-05-24T17:06:47.964Z,95.62
2023-05-24T17:07:47.954Z,95.62
2023-05-24T17:08:47.926Z,90.00
2023-05-24T17:09:47.921Z,78.75
2023-05-24T17:10:47.907Z,78.75
2023-05-24T17:11:50.048Z,78.75
2023-05-24T17:12:52.932Z,78.75
2023-05-24T17:13:47.873Z,78.75
2023-05-24T17:14:47.871Z,73.12
2023-05-24T17:15:47.929Z,73.12
2023-05-24T17:16:47.835Z,73.12
2023-05-24T17:17:47.846Z,67.50
2023-05-24T17:18:47.836Z,73.12
2023-05-24T17:19:47.798Z,73.12
2023-05-24T17:20:48.110Z,73.12
2023-05-24T17:21:47.781Z,67.50
2023-05-24T17:22:47.768Z,67.50
2023-05-24T17:23:52.805Z,61.88
2023-05-24T17:24:47.789Z,61.88
2023-05-24T17:25:47.731Z,56.25
2023-05-24T17:26:47.739Z,56.25
2023-05-24T17:27:47.734Z,56.25
2023-05-24T17:28:47.741Z,56.25
2023-05-24T17:29:47.692Z,56.25
2023-05-24T17:30:47.702Z,56.25
2023-05-24T17:31:47.746Z,56.25
2023-05-24T17:32:47.691Z,50.62